sensor_id;sensor_type;location;lat;lon;timestamp;temperature;humidity
72202;SHT30;60105;54.956;73.412;2023-08-20T00:03:17;16.32;85.46
72202;SHT30;60105;54.956;73.412;2023-08-20T00:06:20;16.28;85.13
72202;SHT30;60105;54.956;73.412;2023-08-20T00:09:21;16.21;85.08
72202;SHT30;60105;54.956;73.412;2023-08-20T00:12:24;16.25;84.84
72202;SHT30;60105;54.956;73.412;2023-08-20T00:15:27;16.29;84.55
72202;SHT30;60105;54.956;73.412;2023-08-20T00:18:31;16.33;84.33
72202;SHT30;60105;54.956;73.412;2023-08-20T00:21:33;16.34;84.24
72202;SHT30;60105;54.956;73.412;2023-08-20T00:24:35;16.34;83.97
72202;SHT30;60105;54.956;73.412;2023-08-20T00:27:46;16.30;83.68
72202;SHT30;60105;54.956;73.412;2023-08-20T00:30:47;16.22;84.21
72202;SHT30;60105;54.956;73.412;2023-08-20T00:33:50;16.21;83.93
72202;SHT30;60105;54.956;73.412;2023-08-20T00:36:51;16.25;83.89
72202;SHT30;60105;54.956;73.412;2023-08-20T00:39:53;16.28;83.70
72202;SHT30;60105;54.956;73.412;2023-08-20T00:43:17;16.28;83.62
72202;SHT30;60105;54.956;73.412;2023-08-20T00:46:18;16.28;83.47
72202;SHT30;60105;54.956;73.412;2023-08-20T00:49:20;16.25;83.25
72202;SHT30;60105;54.956;73.412;2023-08-20T00:52:22;16.26;82.94
72202;SHT30;60105;54.956;73.412;2023-08-20T00:55:23;16.28;82.53
72202;SHT30;60105;54.956;73.412;2023-08-20T00:58:25;16.38;82.58
72202;SHT30;60105;54.956;73.412;2023-08-20T01:01:26;16.34;82.54
72202;SHT30;60105;54.956;73.412;2023-08-20T01:04:28;16.40;82.40
72202;SHT30;60105;54.956;73.412;2023-08-20T01:11:40;16.50;82.19
72202;SHT30;60105;54.956;73.412;2023-08-20T01:14:44;16.46;81.97
72202;SHT30;60105;54.956;73.412;2023-08-20T01:18:17;16.49;81.61
72202;SHT30;60105;54.956;73.412;2023-08-20T01:21:27;16.56;81.37
72202;SHT30;60105;54.956;73.412;2023-08-20T01:28:30;16.63;81.18
72202;SHT30;60105;54.956;73.412;2023-08-20T01:31:32;16.70;81.15
72202;SHT30;60105;54.956;73.412;2023-08-20T01:34:34;16.70;80.69
72202;SHT30;60105;54.956;73.412;2023-08-20T01:38:17;16.70;80.72
72202;SHT30;60105;54.956;73.412;2023-08-20T01:41:19;16.76;80.56
72202;SHT30;60105;54.956;73.412;2023-08-20T01:44:20;16.81;80.77
72202;SHT30;60105;54.956;73.412;2023-08-20T01:47:21;17.01;80.24
72202;SHT30;60105;54.956;73.412;2023-08-20T01:50:23;17.10;79.75
72202;SHT30;60105;54.956;73.412;2023-08-20T01:53:24;17.07;79.86
72202;SHT30;60105;54.956;73.412;2023-08-20T01:56:26;17.04;79.45
72202;SHT30;60105;54.956;73.412;2023-08-20T01:59:27;17.00;79.69
72202;SHT30;60105;54.956;73.412;2023-08-20T02:02:29;16.90;79.34
72202;SHT30;60105;54.956;73.412;2023-08-20T02:05:31;16.85;79.82
72202;SHT30;60105;54.956;73.412;2023-08-20T02:08:33;16.90;79.53
72202;SHT30;60105;54.956;73.412;2023-08-20T02:11:35;16.98;79.55
72202;SHT30;60105;54.956;73.412;2023-08-20T02:14:36;16.95;79.18
72202;SHT30;60105;54.956;73.412;2023-08-20T02:18:17;16.97;79.07
72202;SHT30;60105;54.956;73.412;2023-08-20T02:21:18;16.91;79.35
72202;SHT30;60105;54.956;73.412;2023-08-20T02:24:20;16.79;79.34
72202;SHT30;60105;54.956;73.412;2023-08-20T02:27:23;16.73;79.34
72202;SHT30;60105;54.956;73.412;2023-08-20T02:30:24;16.76;79.26
72202;SHT30;60105;54.956;73.412;2023-08-20T02:33:25;16.76;79.55
72202;SHT30;60105;54.956;73.412;2023-08-20T02:36:27;16.90;79.03
72202;SHT30;60105;54.956;73.412;2023-08-20T02:39:28;17.04;78.90
72202;SHT30;60105;54.956;73.412;2023-08-20T02:42:29;17.15;78.53
72202;SHT30;60105;54.956;73.412;2023-08-20T02:45:31;17.18;77.80
72202;SHT30;60105;54.956;73.412;2023-08-20T02:48:32;17.38;76.60
72202;SHT30;60105;54.956;73.412;2023-08-20T02:51:34;17.34;76.56
72202;SHT30;60105;54.956;73.412;2023-08-20T02:54:36;17.32;75.69
72202;SHT30;60105;54.956;73.412;2023-08-20T02:57:46;17.38;76.71
72202;SHT30;60105;54.956;73.412;2023-08-20T03:00:47;17.39;75.36
72202;SHT30;60105;54.956;73.412;2023-08-20T03:03:48;17.46;75.51
72202;SHT30;60105;54.956;73.412;2023-08-20T03:06:50;17.61;75.46
72202;SHT30;60105;54.956;73.412;2023-08-20T03:09:51;17.62;73.90
72202;SHT30;60105;54.956;73.412;2023-08-20T03:13:18;17.72;73.86
72202;SHT30;60105;54.956;73.412;2023-08-20T03:16:19;17.82;73.63
72202;SHT30;60105;54.956;73.412;2023-08-20T03:19:20;17.63;72.98
72202;SHT30;60105;54.956;73.412;2023-08-20T03:22:22;17.61;72.75
72202;SHT30;60105;54.956;73.412;2023-08-20T03:25:24;17.52;72.88
72202;SHT30;60105;54.956;73.412;2023-08-20T03:28:25;17.46;73.54
72202;SHT30;60105;54.956;73.412;2023-08-20T03:31:28;17.53;73.75
72202;SHT30;60105;54.956;73.412;2023-08-20T03:34:29;17.59;72.85
72202;SHT30;60105;54.956;73.412;2023-08-20T03:37:32;17.52;73.13
72202;SHT30;60105;54.956;73.412;2023-08-20T03:40:33;17.66;72.76
72202;SHT30;60105;54.956;73.412;2023-08-20T03:43:34;17.58;72.92
72202;SHT30;60105;54.956;73.412;2023-08-20T03:46:36;17.65;73.54
72202;SHT30;60105;54.956;73.412;2023-08-20T03:49:37;17.59;72.23
72202;SHT30;60105;54.956;73.412;2023-08-20T03:53:17;17.34;73.18
72202;SHT30;60105;54.956;73.412;2023-08-20T03:56:18;17.42;72.83
72202;SHT30;60105;54.956;73.412;2023-08-20T03:59:21;17.42;70.89
72202;SHT30;60105;54.956;73.412;2023-08-20T04:02:23;17.43;71.08
72202;SHT30;60105;54.956;73.412;2023-08-20T04:05:24;17.52;70.53
72202;SHT30;60105;54.956;73.412;2023-08-20T04:08:26;17.66;70.82
72202;SHT30;60105;54.956;73.412;2023-08-20T04:11:27;17.72;69.77
72202;SHT30;60105;54.956;73.412;2023-08-20T04:14:28;17.63;68.84
72202;SHT30;60105;54.956;73.412;2023-08-20T04:17:30;17.76;69.35
72202;SHT30;60105;54.956;73.412;2023-08-20T04:20:32;17.97;68.71
72202;SHT30;60105;54.956;73.412;2023-08-20T04:23:33;18.01;67.64
72202;SHT30;60105;54.956;73.412;2023-08-20T04:26:35;18.08;68.36
72202;SHT30;60105;54.956;73.412;2023-08-20T04:29:36;18.10;68.93
72202;SHT30;60105;54.956;73.412;2023-08-20T04:33:17;18.14;68.30
72202;SHT30;60105;54.956;73.412;2023-08-20T04:36:20;18.18;68.35
72202;SHT30;60105;54.956;73.412;2023-08-20T04:39:22;18.23;67.25
72202;SHT30;60105;54.956;73.412;2023-08-20T04:42:26;18.37;66.99
72202;SHT30;60105;54.956;73.412;2023-08-20T04:45:28;18.49;66.90
72202;SHT30;60105;54.956;73.412;2023-08-20T04:48:29;18.71;66.60
72202;SHT30;60105;54.956;73.412;2023-08-20T04:51:31;18.71;66.91
72202;SHT30;60105;54.956;73.412;2023-08-20T04:54:32;18.68;66.50
72202;SHT30;60105;54.956;73.412;2023-08-20T04:57:45;18.75;66.87
72202;SHT30;60105;54.956;73.412;2023-08-20T05:00:47;18.86;67.12
72202;SHT30;60105;54.956;73.412;2023-08-20T05:03:49;18.99;66.06
72202;SHT30;60105;54.956;73.412;2023-08-20T05:06:51;18.92;65.85
72202;SHT30;60105;54.956;73.412;2023-08-20T05:09:54;18.84;66.31
72202;SHT30;60105;54.956;73.412;2023-08-20T05:13:17;18.61;66.28
72202;SHT30;60105;54.956;73.412;2023-08-20T05:16:23;18.56;66.86
72202;SHT30;60105;54.956;73.412;2023-08-20T05:19:26;18.59;66.49
72202;SHT30;60105;54.956;73.412;2023-08-20T05:22:27;18.54;66.97
72202;SHT30;60105;54.956;73.412;2023-08-20T05:25:29;18.52;67.13
72202;SHT30;60105;54.956;73.412;2023-08-20T05:28:31;18.81;66.30
72202;SHT30;60105;54.956;73.412;2023-08-20T05:31:33;18.81;65.15
72202;SHT30;60105;54.956;73.412;2023-08-20T05:34:35;18.69;66.00
72202;SHT30;60105;54.956;73.412;2023-08-20T05:38:17;18.62;66.26
72202;SHT30;60105;54.956;73.412;2023-08-20T05:41:21;18.64;65.59
72202;SHT30;60105;54.956;73.412;2023-08-20T05:44:23;18.68;65.60
72202;SHT30;60105;54.956;73.412;2023-08-20T05:47:24;18.73;65.24
72202;SHT30;60105;54.956;73.412;2023-08-20T05:50:26;18.76;65.48
72202;SHT30;60105;54.956;73.412;2023-08-20T05:53:28;18.76;65.73
72202;SHT30;60105;54.956;73.412;2023-08-20T05:56:29;18.81;65.70
72202;SHT30;60105;54.956;73.412;2023-08-20T05:59:30;19.03;65.28
72202;SHT30;60105;54.956;73.412;2023-08-20T06:02:31;19.37;64.61
72202;SHT30;60105;54.956;73.412;2023-08-20T06:05:33;19.50;63.75
72202;SHT30;60105;54.956;73.412;2023-08-20T06:08:35;19.54;62.08
72202;SHT30;60105;54.956;73.412;2023-08-20T06:11:36;19.40;62.17
72202;SHT30;60105;54.956;73.412;2023-08-20T06:14:38;19.63;61.66
72202;SHT30;60105;54.956;73.412;2023-08-20T06:18:17;19.82;61.30
72202;SHT30;60105;54.956;73.412;2023-08-20T06:21:18;19.92;60.98
72202;SHT30;60105;54.956;73.412;2023-08-20T06:24:19;19.85;60.58
72202;SHT30;60105;54.956;73.412;2023-08-20T06:27:21;19.78;61.56
72202;SHT30;60105;54.956;73.412;2023-08-20T06:30:22;19.75;61.78
72202;SHT30;60105;54.956;73.412;2023-08-20T06:33:25;19.74;62.01
72202;SHT30;60105;54.956;73.412;2023-08-20T06:36:26;19.77;61.62
72202;SHT30;60105;54.956;73.412;2023-08-20T06:39:27;19.79;62.04
72202;SHT30;60105;54.956;73.412;2023-08-20T06:42:29;19.92;61.55
72202;SHT30;60105;54.956;73.412;2023-08-20T06:45:31;19.74;61.08
72202;SHT30;60105;54.956;73.412;2023-08-20T06:48:32;19.73;60.87
72202;SHT30;60105;54.956;73.412;2023-08-20T06:51:33;19.67;61.21
72202;SHT30;60105;54.956;73.412;2023-08-20T06:54:35;19.81;59.17
72202;SHT30;60105;54.956;73.412;2023-08-20T06:57:45;20.18;59.40
72202;SHT30;60105;54.956;73.412;2023-08-20T07:00:47;20.26;59.56
72202;SHT30;60105;54.956;73.412;2023-08-20T07:03:48;20.19;57.84
72202;SHT30;60105;54.956;73.412;2023-08-20T07:06:51;20.04;57.80
72202;SHT30;60105;54.956;73.412;2023-08-20T07:09:52;20.04;57.63
72202;SHT30;60105;54.956;73.412;2023-08-20T07:13:17;19.94;57.21
72202;SHT30;60105;54.956;73.412;2023-08-20T07:16:19;19.85;57.46
72202;SHT30;60105;54.956;73.412;2023-08-20T07:19:20;19.81;58.51
72202;SHT30;60105;54.956;73.412;2023-08-20T07:22:22;19.85;58.32
72202;SHT30;60105;54.956;73.412;2023-08-20T07:25:23;20.11;58.16
72202;SHT30;60105;54.956;73.412;2023-08-20T07:28:25;20.32;56.41
72202;SHT30;60105;54.956;73.412;2023-08-20T07:31:49;20.29;55.52
72202;SHT30;60105;54.956;73.412;2023-08-20T07:34:50;20.25;56.04
72202;SHT30;60105;54.956;73.412;2023-08-20T07:38:17;20.29;57.68
72202;SHT30;60105;54.956;73.412;2023-08-20T07:41:19;20.25;57.82
72202;SHT30;60105;54.956;73.412;2023-08-20T07:44:23;20.19;58.24
72202;SHT30;60105;54.956;73.412;2023-08-20T07:47:25;20.09;58.50
72202;SHT30;60105;54.956;73.412;2023-08-20T07:50:27;20.12;58.61
72202;SHT30;60105;54.956;73.412;2023-08-20T07:53:29;20.42;58.26
72202;SHT30;60105;54.956;73.412;2023-08-20T07:56:30;20.60;56.95
72202;SHT30;60105;54.956;73.412;2023-08-20T07:59:32;20.53;57.40
72202;SHT30;60105;54.956;73.412;2023-08-20T08:03:17;20.37;57.23
72202;SHT30;60105;54.956;73.412;2023-08-20T08:06:18;20.39;56.70
72202;SHT30;60105;54.956;73.412;2023-08-20T08:09:28;20.74;56.59
72202;SHT30;60105;54.956;73.412;2023-08-20T08:12:29;20.79;56.45
72202;SHT30;60105;54.956;73.412;2023-08-20T08:15:31;20.71;56.63
72202;SHT30;60105;54.956;73.412;2023-08-20T08:18:32;20.53;55.87
72202;SHT30;60105;54.956;73.412;2023-08-20T08:21:33;20.34;56.91
72202;SHT30;60105;54.956;73.412;2023-08-20T08:24:35;20.22;57.58
72202;SHT30;60105;54.956;73.412;2023-08-20T08:27:45;20.16;57.77
72202;SHT30;60105;54.956;73.412;2023-08-20T08:30:47;20.12;56.46
72202;SHT30;60105;54.956;73.412;2023-08-20T08:33:48;20.23;56.15
72202;SHT30;60105;54.956;73.412;2023-08-20T08:36:49;20.39;56.20
72202;SHT30;60105;54.956;73.412;2023-08-20T08:39:51;20.49;55.87
72202;SHT30;60105;54.956;73.412;2023-08-20T08:43:18;20.59;55.80
72202;SHT30;60105;54.956;73.412;2023-08-20T08:46:20;20.46;54.50
72202;SHT30;60105;54.956;73.412;2023-08-20T08:49:21;20.67;54.68
72202;SHT30;60105;54.956;73.412;2023-08-20T08:52:23;20.79;56.01
72202;SHT30;60105;54.956;73.412;2023-08-20T08:55:25;20.73;55.63
72202;SHT30;60105;54.956;73.412;2023-08-20T08:58:27;20.76;55.25
72202;SHT30;60105;54.956;73.412;2023-08-20T09:01:28;20.90;53.40
72202;SHT30;60105;54.956;73.412;2023-08-20T09:04:31;21.15;53.36
72202;SHT30;60105;54.956;73.412;2023-08-20T09:08:27;21.34;52.23
72202;SHT30;60105;54.956;73.412;2023-08-20T09:11:34;21.14;52.87
72202;SHT30;60105;54.956;73.412;2023-08-20T09:14:37;20.87;54.38
72202;SHT30;60105;54.956;73.412;2023-08-20T09:18:17;20.61;53.01
72202;SHT30;60105;54.956;73.412;2023-08-20T09:21:18;20.47;54.80
72202;SHT30;60105;54.956;73.412;2023-08-20T09:24:45;20.60;53.61
72202;SHT30;60105;54.956;73.412;2023-08-20T09:27:46;20.84;51.70
72202;SHT30;60105;54.956;73.412;2023-08-20T09:30:58;21.11;50.79
72202;SHT30;60105;54.956;73.412;2023-08-20T09:33:59;21.19;51.82
72202;SHT30;60105;54.956;73.412;2023-08-20T09:37:01;21.02;53.11
72202;SHT30;60105;54.956;73.412;2023-08-20T09:40:02;20.80;53.28
72202;SHT30;60105;54.956;73.412;2023-08-20T09:43:17;20.60;53.95
72202;SHT30;60105;54.956;73.412;2023-08-20T09:46:19;20.46;53.62
72202;SHT30;60105;54.956;73.412;2023-08-20T09:49:23;20.76;53.49
72202;SHT30;60105;54.956;73.412;2023-08-20T09:52:32;21.07;52.12
72202;SHT30;60105;54.956;73.412;2023-08-20T09:55:38;21.34;51.30
72202;SHT30;60105;54.956;73.412;2023-08-20T09:58:40;21.53;50.61
72202;SHT30;60105;54.956;73.412;2023-08-20T10:01:42;21.37;51.37
72202;SHT30;60105;54.956;73.412;2023-08-20T10:04:43;21.05;52.63
72202;SHT30;60105;54.956;73.412;2023-08-20T10:08:17;20.92;51.89
72202;SHT30;60105;54.956;73.412;2023-08-20T10:11:19;21.01;51.60
72202;SHT30;60105;54.956;73.412;2023-08-20T10:14:20;21.25;51.03
72202;SHT30;60105;54.956;73.412;2023-08-20T10:17:25;21.10;50.69
72202;SHT30;60105;54.956;73.412;2023-08-20T10:20:28;20.98;51.51
72202;SHT30;60105;54.956;73.412;2023-08-20T10:23:30;20.88;52.48
72202;SHT30;60105;54.956;73.412;2023-08-20T10:26:33;20.77;52.59
72202;SHT30;60105;54.956;73.412;2023-08-20T10:29:39;20.73;52.20
72202;SHT30;60105;54.956;73.412;2023-08-20T10:33:17;20.64;52.08
72202;SHT30;60105;54.956;73.412;2023-08-20T10:36:21;20.71;52.32
72202;SHT30;60105;54.956;73.412;2023-08-20T10:39:29;20.90;52.10
72202;SHT30;60105;54.956;73.412;2023-08-20T10:42:30;20.88;52.87
72202;SHT30;60105;54.956;73.412;2023-08-20T10:45:43;20.92;52.07
72202;SHT30;60105;54.956;73.412;2023-08-20T10:51:51;21.05;52.33
72202;SHT30;60105;54.956;73.412;2023-08-20T10:54:55;21.01;52.24
72202;SHT30;60105;54.956;73.412;2023-08-20T10:57:57;21.12;51.42
72202;SHT30;60105;54.956;73.412;2023-08-20T11:01:18;21.02;51.71
72202;SHT30;60105;54.956;73.412;2023-08-20T11:04:21;21.25;50.58
72202;SHT30;60105;54.956;73.412;2023-08-20T11:07:24;21.31;50.31
72202;SHT30;60105;54.956;73.412;2023-08-20T11:10:28;21.31;50.95
72202;SHT30;60105;54.956;73.412;2023-08-20T11:13:32;21.29;50.30
72202;SHT30;60105;54.956;73.412;2023-08-20T11:16:36;21.17;50.42
72202;SHT30;60105;54.956;73.412;2023-08-20T11:19:37;21.22;50.09
72202;SHT30;60105;54.956;73.412;2023-08-20T11:23:17;21.37;50.36
72202;SHT30;60105;54.956;73.412;2023-08-20T11:26:18;21.43;50.13
72202;SHT30;60105;54.956;73.412;2023-08-20T11:29:19;21.48;49.21
72202;SHT30;60105;54.956;73.412;2023-08-20T11:32:23;21.41;49.62
72202;SHT30;60105;54.956;73.412;2023-08-20T11:35:25;21.39;48.77
72202;SHT30;60105;54.956;73.412;2023-08-20T11:38:26;21.37;49.52
72202;SHT30;60105;54.956;73.412;2023-08-20T11:41:29;21.28;48.43
72202;SHT30;60105;54.956;73.412;2023-08-20T11:44:47;21.25;48.80
72202;SHT30;60105;54.956;73.412;2023-08-20T11:48:17;21.32;48.46
72202;SHT30;60105;54.956;73.412;2023-08-20T11:51:18;21.41;48.33
72202;SHT30;60105;54.956;73.412;2023-08-20T11:54:20;21.48;48.66
72202;SHT30;60105;54.956;73.412;2023-08-20T11:57:21;21.53;49.76
72202;SHT30;60105;54.956;73.412;2023-08-20T12:00:27;21.50;48.81
72202;SHT30;60105;54.956;73.412;2023-08-20T12:03:31;21.42;49.49
72202;SHT30;60105;54.956;73.412;2023-08-20T12:06:34;21.38;49.24
72202;SHT30;60105;54.956;73.412;2023-08-20T12:09:36;21.29;48.89
72202;SHT30;60105;54.956;73.412;2023-08-20T12:13:17;21.35;49.23
72202;SHT30;60105;54.956;73.412;2023-08-20T12:16:24;21.35;49.28
72202;SHT30;60105;54.956;73.412;2023-08-20T12:19:26;21.29;48.59
72202;SHT30;60105;54.956;73.412;2023-08-20T12:22:28;21.17;49.09
72202;SHT30;60105;54.956;73.412;2023-08-20T12:25:31;21.07;49.45
72202;SHT30;60105;54.956;73.412;2023-08-20T12:28:33;21.01;49.57
72202;SHT30;60105;54.956;73.412;2023-08-20T12:31:35;21.00;49.99
72202;SHT30;60105;54.956;73.412;2023-08-20T12:34:37;20.94;50.23
72202;SHT30;60105;54.956;73.412;2023-08-20T12:38:17;21.00;50.14
72202;SHT30;60105;54.956;73.412;2023-08-20T12:41:19;20.95;50.03
72202;SHT30;60105;54.956;73.412;2023-08-20T12:44:20;20.87;50.28
72202;SHT30;60105;54.956;73.412;2023-08-20T12:47:22;20.98;50.95
72202;SHT30;60105;54.956;73.412;2023-08-20T12:50:23;20.98;50.52
72202;SHT30;60105;54.956;73.412;2023-08-20T12:53:26;20.92;51.07
72202;SHT30;60105;54.956;73.412;2023-08-20T12:56:27;20.90;51.23
72202;SHT30;60105;54.956;73.412;2023-08-20T12:59:28;20.81;50.74
72202;SHT30;60105;54.956;73.412;2023-08-20T13:02:30;20.70;51.18
72202;SHT30;60105;54.956;73.412;2023-08-20T13:05:32;20.64;51.94
72202;SHT30;60105;54.956;73.412;2023-08-20T13:08:33;20.53;51.55
72202;SHT30;60105;54.956;73.412;2023-08-20T13:11:36;20.37;51.77
72202;SHT30;60105;54.956;73.412;2023-08-20T13:14:40;20.23;52.39
72202;SHT30;60105;54.956;73.412;2023-08-20T13:18:17;20.12;52.60
72202;SHT30;60105;54.956;73.412;2023-08-20T13:21:19;20.02;53.33
72202;SHT30;60105;54.956;73.412;2023-08-20T13:24:22;20.01;53.73
72202;SHT30;60105;54.956;73.412;2023-08-20T13:27:23;19.89;54.44
72202;SHT30;60105;54.956;73.412;2023-08-20T13:30:25;19.78;54.90
72202;SHT30;60105;54.956;73.412;2023-08-20T13:33:26;19.71;54.89
72202;SHT30;60105;54.956;73.412;2023-08-20T13:36:28;19.67;55.22
72202;SHT30;60105;54.956;73.412;2023-08-20T13:39:29;19.64;55.33
72202;SHT30;60105;54.956;73.412;2023-08-20T13:42:30;19.55;55.41
72202;SHT30;60105;54.956;73.412;2023-08-20T13:45:32;19.43;56.23
72202;SHT30;60105;54.956;73.412;2023-08-20T13:48:33;19.35;55.55
72202;SHT30;60105;54.956;73.412;2023-08-20T13:51:35;19.28;55.81
72202;SHT30;60105;54.956;73.412;2023-08-20T13:54:36;19.22;56.18
72202;SHT30;60105;54.956;73.412;2023-08-20T13:57:45;19.03;56.35
72202;SHT30;60105;54.956;73.412;2023-08-20T14:00:46;18.99;56.72
72202;SHT30;60105;54.956;73.412;2023-08-20T14:03:48;18.93;56.97
72202;SHT30;60105;54.956;73.412;2023-08-20T14:06:51;18.89;57.74
72202;SHT30;60105;54.956;73.412;2023-08-20T14:09:52;18.85;57.75
72202;SHT30;60105;54.956;73.412;2023-08-20T14:13:17;18.75;58.18
72202;SHT30;60105;54.956;73.412;2023-08-20T14:16:18;18.66;58.60
72202;SHT30;60105;54.956;73.412;2023-08-20T14:19:29;18.49;58.87
72202;SHT30;60105;54.956;73.412;2023-08-20T14:22:31;18.41;59.09
72202;SHT30;60105;54.956;73.412;2023-08-20T14:25:32;18.31;58.83
72202;SHT30;60105;54.956;73.412;2023-08-20T14:28:34;18.18;59.60
72202;SHT30;60105;54.956;73.412;2023-08-20T14:31:35;18.08;59.75
72202;SHT30;60105;54.956;73.412;2023-08-20T14:34:36;18.00;60.06
72202;SHT30;60105;54.956;73.412;2023-08-20T14:38:17;17.90;60.37
72202;SHT30;60105;54.956;73.412;2023-08-20T14:41:18;17.85;60.71
72202;SHT30;60105;54.956;73.412;2023-08-20T14:44:19;17.77;61.03
72202;SHT30;60105;54.956;73.412;2023-08-20T14:47:21;17.69;61.34
72202;SHT30;60105;54.956;73.412;2023-08-20T14:50:22;17.62;61.66
72202;SHT30;60105;54.956;73.412;2023-08-20T14:53:23;17.56;62.01
72202;SHT30;60105;54.956;73.412;2023-08-20T14:56:24;17.46;62.27
72202;SHT30;60105;54.956;73.412;2023-08-20T14:59:26;17.39;62.71
72202;SHT30;60105;54.956;73.412;2023-08-20T15:02:27;17.32;63.04
72202;SHT30;60105;54.956;73.412;2023-08-20T15:05:28;17.27;63.28
72202;SHT30;60105;54.956;73.412;2023-08-20T15:08:30;17.21;63.50
72202;SHT30;60105;54.956;73.412;2023-08-20T15:11:32;17.14;63.78
72202;SHT30;60105;54.956;73.412;2023-08-20T15:14:33;17.07;64.07
72202;SHT30;60105;54.956;73.412;2023-08-20T15:18:17;17.01;64.41
72202;SHT30;60105;54.956;73.412;2023-08-20T15:21:18;16.94;64.60
72202;SHT30;60105;54.956;73.412;2023-08-20T15:24:19;16.91;64.63
72202;SHT30;60105;54.956;73.412;2023-08-20T15:27:23;16.87;64.98
72202;SHT30;60105;54.956;73.412;2023-08-20T15:30:25;16.83;65.17
72202;SHT30;60105;54.956;73.412;2023-08-20T15:33:27;16.76;65.29
72202;SHT30;60105;54.956;73.412;2023-08-20T15:36:28;16.67;65.53
72202;SHT30;60105;54.956;73.412;2023-08-20T15:39:32;16.61;65.96
72202;SHT30;60105;54.956;73.412;2023-08-20T15:43:17;16.52;66.29
72202;SHT30;60105;54.956;73.412;2023-08-20T15:46:18;16.46;66.60
72202;SHT30;60105;54.956;73.412;2023-08-20T15:49:20;16.43;66.81
72202;SHT30;60105;54.956;73.412;2023-08-20T15:52:21;16.40;66.89
72202;SHT30;60105;54.956;73.412;2023-08-20T15:55:23;16.38;66.97
72202;SHT30;60105;54.956;73.412;2023-08-20T15:58:24;16.32;67.16
72202;SHT30;60105;54.956;73.412;2023-08-20T16:01:25;16.25;67.29
72202;SHT30;60105;54.956;73.412;2023-08-20T16:04:28;16.21;67.53
72202;SHT30;60105;54.956;73.412;2023-08-20T16:07:31;16.15;67.81
72202;SHT30;60105;54.956;73.412;2023-08-20T16:10:32;16.09;68.05
72202;SHT30;60105;54.956;73.412;2023-08-20T16:13:33;16.04;68.40
72202;SHT30;60105;54.956;73.412;2023-08-20T16:16:35;16.00;68.58
72202;SHT30;60105;54.956;73.412;2023-08-20T16:19:36;15.91;68.93
72202;SHT30;60105;54.956;73.412;2023-08-20T16:23:17;15.78;69.52
72202;SHT30;60105;54.956;73.412;2023-08-20T16:26:18;15.77;69.52
72202;SHT30;60105;54.956;73.412;2023-08-20T16:29:19;15.75;69.59
72202;SHT30;60105;54.956;73.412;2023-08-20T16:32:21;15.72;69.82
72202;SHT30;60105;54.956;73.412;2023-08-20T16:35:22;15.68;69.83
72202;SHT30;60105;54.956;73.412;2023-08-20T16:38:24;15.64;69.90
72202;SHT30;60105;54.956;73.412;2023-08-20T16:41:25;15.63;70.18
72202;SHT30;60105;54.956;73.412;2023-08-20T16:44:31;15.55;70.24
72202;SHT30;60105;54.956;73.412;2023-08-20T16:47:32;15.53;70.31
72202;SHT30;60105;54.956;73.412;2023-08-20T16:50:33;15.47;70.47
72202;SHT30;60105;54.956;73.412;2023-08-20T16:53:37;15.43;70.60
72202;SHT30;60105;54.956;73.412;2023-08-20T16:56:38;15.39;70.75
72202;SHT30;60105;54.956;73.412;2023-08-20T16:59:40;15.36;70.97
72202;SHT30;60105;54.956;73.412;2023-08-20T17:03:17;15.29;71.17
72202;SHT30;60105;54.956;73.412;2023-08-20T17:06:19;15.26;71.28
72202;SHT30;60105;54.956;73.412;2023-08-20T17:09:20;15.23;71.43
72202;SHT30;60105;54.956;73.412;2023-08-20T17:12:22;15.22;71.52
72202;SHT30;60105;54.956;73.412;2023-08-20T17:15:23;15.18;71.68
72202;SHT30;60105;54.956;73.412;2023-08-20T17:18:27;15.18;71.58
72202;SHT30;60105;54.956;73.412;2023-08-20T17:21:30;15.12;71.80
72202;SHT30;60105;54.956;73.412;2023-08-20T17:24:32;15.09;71.99
72202;SHT30;60105;54.956;73.412;2023-08-20T17:27:45;15.07;72.04
72202;SHT30;60105;54.956;73.412;2023-08-20T17:30:47;15.02;72.17
72202;SHT30;60105;54.956;73.412;2023-08-20T17:33:48;15.03;72.24
72202;SHT30;60105;54.956;73.412;2023-08-20T17:36:50;14.99;72.17
72202;SHT30;60105;54.956;73.412;2023-08-20T17:39:52;15.00;72.18
72202;SHT30;60105;54.956;73.412;2023-08-20T17:43:17;14.95;72.32
72202;SHT30;60105;54.956;73.412;2023-08-20T17:46:18;14.89;72.63
72202;SHT30;60105;54.956;73.412;2023-08-20T17:49:19;14.81;72.75
72202;SHT30;60105;54.956;73.412;2023-08-20T17:52:21;14.78;72.90
72202;SHT30;60105;54.956;73.412;2023-08-20T17:55:22;14.78;73.07
72202;SHT30;60105;54.956;73.412;2023-08-20T17:58:24;14.72;73.14
72202;SHT30;60105;54.956;73.412;2023-08-20T18:01:25;14.71;73.43
72202;SHT30;60105;54.956;73.412;2023-08-20T18:04:26;14.67;73.38
72202;SHT30;60105;54.956;73.412;2023-08-20T18:07:28;14.51;73.69
72202;SHT30;60105;54.956;73.412;2023-08-20T18:10:29;14.55;73.69
72202;SHT30;60105;54.956;73.412;2023-08-20T18:13:30;14.55;73.64
72202;SHT30;60105;54.956;73.412;2023-08-20T18:16:32;14.49;73.76
72202;SHT30;60105;54.956;73.412;2023-08-20T18:19:33;14.46;73.89
72202;SHT30;60105;54.956;73.412;2023-08-20T18:23:17;14.41;74.08
72202;SHT30;60105;54.956;73.412;2023-08-20T18:26:20;14.40;74.26
72202;SHT30;60105;54.956;73.412;2023-08-20T18:29:22;14.33;74.51
72202;SHT30;60105;54.956;73.412;2023-08-20T18:32:23;14.30;74.46
72202;SHT30;60105;54.956;73.412;2023-08-20T18:35:25;14.23;74.53
72202;SHT30;60105;54.956;73.412;2023-08-20T18:41:33;13.99;75.28
72202;SHT30;60105;54.956;73.412;2023-08-20T18:44:35;14.02;75.26
72202;SHT30;60105;54.956;73.412;2023-08-20T18:48:17;13.97;75.40
72202;SHT30;60105;54.956;73.412;2023-08-20T18:51:21;13.93;75.45
72202;SHT30;60105;54.956;73.412;2023-08-20T18:54:23;13.97;75.36
72202;SHT30;60105;54.956;73.412;2023-08-20T18:57:24;13.99;75.40
72202;SHT30;60105;54.956;73.412;2023-08-20T19:00:26;13.95;75.35
72202;SHT30;60105;54.956;73.412;2023-08-20T19:03:27;13.91;75.46
72202;SHT30;60105;54.956;73.412;2023-08-20T19:06:29;13.86;75.80
72202;SHT30;60105;54.956;73.412;2023-08-20T19:09:30;13.82;75.85
72202;SHT30;60105;54.956;73.412;2023-08-20T19:12:31;13.83;75.60
72202;SHT30;60105;54.956;73.412;2023-08-20T19:15:49;13.85;75.88
72202;SHT30;60105;54.956;73.412;2023-08-20T19:18:51;13.76;76.39
72202;SHT30;60105;54.956;73.412;2023-08-20T19:21:52;13.67;76.66
72202;SHT30;60105;54.956;73.412;2023-08-20T19:24:54;13.61;77.12
72202;SHT30;60105;54.956;73.412;2023-08-20T19:27:55;13.56;77.06